Woodhaven, Michigan
Current Conditions -  °F | °C
As of 9:14 AM on Monday 26 Jan 2015 (Local Time) from KONZ Reporting Station
Clear Clear  
Wind Chill:   Ceiling: Unl
Heat Index: 14°   Visibility: 10mi
Dew Point:   Wind: 10mph
Humidity: 73%   Direction: 10°N
Pressure: 29.93"   Gusts: NA
Location:  42.14°N, 83.24°W
Report Text: KONZ 261414Z AUTO 01009KT 10SM CLR M10/M14 A2993 RMK AO2
Loading
Personal Weather Stations






























Interactive Weather Map New forecast layout! Learn more

10-Day Weather Forecast

Advertisements
Track Severe Weather on mobile